Time;durP1;ratioP1;P1;durP2;ratioP2;P2;SDS_P1;SDS_P2;PMS_P1;PMS_P2;Temp;Humidity;BMP_temperature;BMP_pressure;BME280_temperature;BME280_humidity;BME280_pressure;Samples;Min_cycle;Max_cycle;Signal;HPM_P1;HPM_P2
2021/06/25 00:00:10;;;;;;;17.67;14.82;;;17.70;75.00;;;;;;5075742;28;20026;-37
2021/06/25 00:02:37;;;;;;;20.48;16.17;;;17.80;74.60;;;;;;5075650;28;20031;-36
2021/06/25 00:05:05;;;;;;;22.10;16.38;;;17.80;74.50;;;;;;5093724;28;20081;-36
2021/06/25 00:07:31;;;;;;;21.05;16.02;;;17.80;74.60;;;;;;5093923;28;20027;-36
2021/06/25 00:09:56;;;;;;;22.58;16.50;;;17.90;74.60;;;;;;5075402;28;20128;-36
2021/06/25 00:12:22;;;;;;;26.00;17.00;;;17.80;74.30;;;;;;5092517;28;20064;-36
2021/06/25 00:14:48;;;;;;;22.90;16.67;;;17.70;75.10;;;;;;5075794;28;20061;-39
2021/06/25 00:17:14;;;;;;;23.27;18.23;;;17.70;75.50;;;;;;5076367;28;20069;-37
2021/06/25 00:19:40;;;;;;;23.83;17.65;;;17.70;75.80;;;;;;5093741;28;20499;-36
2021/06/25 00:22:05;;;;;;;30.60;20.08;;;17.50;76.00;;;;;;5076194;28;20391;-37
2021/06/25 00:24:32;;;;;;;25.45;19.15;;;17.40;76.70;;;;;;5076135;28;20020;-36
2021/06/25 00:26:57;;;;;;;25.40;17.70;;;17.40;77.00;;;;;;5075458;28;20169;-36
2021/06/25 00:29:23;;;;;;;32.20;19.88;;;17.40;77.20;;;;;;5094069;28;20048;-36
2021/06/25 00:31:50;;;;;;;24.92;19.50;;;17.50;77.10;;;;;;5075449;28;20024;-37
2021/06/25 00:34:15;;;;;;;24.30;19.67;;;17.50;77.20;;;;;;5093724;28;20069;-36
2021/06/25 00:36:41;;;;;;;25.17;19.40;;;17.50;77.00;;;;;;5093423;28;20024;-36
2021/06/25 00:39:07;;;;;;;29.70;21.33;;;17.40;77.50;;;;;;5093278;28;20012;-36
2021/06/25 00:41:32;;;;;;;26.45;20.10;;;17.40;77.80;;;;;;5093340;28;20028;-36
2021/06/25 00:43:58;;;;;;;27.60;21.45;;;17.30;78.40;;;;;;5075192;28;20039;-36
2021/06/25 00:46:24;;;;;;;28.33;20.95;;;17.30;78.20;;;;;;5093467;28;20475;-36
2021/06/25 00:48:49;;;;;;;32.30;21.52;;;17.40;77.40;;;;;;5075225;28;20035;-36
2021/06/25 00:51:17;;;;;;;33.63;20.67;;;17.40;77.10;;;;;;5093105;28;20024;-35
2021/06/25 00:53:44;;;;;;;30.27;22.33;;;17.50;76.80;;;;;;5075626;28;20027;-36
2021/06/25 00:56:14;;;;;;;25.88;20.20;;;17.30;77.50;;;;;;5093154;28;20438;-36
2021/06/25 00:58:42;;;;;;;26.75;19.95;;;17.20;77.90;;;;;;5075391;28;20027;-35
2021/06/25 01:01:07;;;;;;;33.40;20.77;;;17.10;78.00;;;;;;5074902;28;20073;-37
2021/06/25 01:03:36;;;;;;;29.63;22.15;;;17.20;78.00;;;;;;5093587;28;20016;-35
2021/06/25 01:06:02;;;;;;;30.05;22.08;;;17.20;77.50;;;;;;5093907;28;20028;-36
2021/06/25 01:08:29;;;;;;;29.85;21.65;;;17.10;77.70;;;;;;5077486;28;20023;-36
2021/06/25 01:10:55;;;;;;;28.95;20.83;;;17.10;77.80;;;;;;5097574;28;20107;-37
2021/06/25 01:13:21;;;;;;;28.15;21.67;;;17.10;77.60;;;;;;5096997;28;20103;-36
2021/06/25 01:15:47;;;;;;;33.95;21.58;;;17.00;77.80;;;;;;5096825;28;20038;-35
2021/06/25 01:18:12;;;;;;;30.85;20.67;;;17.00;77.40;;;;;;5097111;28;20107;-36
2021/06/25 01:20:38;;;;;;;29.23;22.00;;;17.10;77.40;;;;;;5096724;28;20027;-36
2021/06/25 01:23:05;;;;;;;30.75;21.23;;;16.90;77.70;;;;;;5096664;28;20028;-35
2021/06/25 01:25:35;;;;;;;28.80;20.63;;;16.80;78.10;;;;;;5096654;28;20028;-36
2021/06/25 01:28:04;;;;;;;31.27;20.33;;;16.80;77.50;;;;;;5096893;28;20032;-37
2021/06/25 01:30:34;;;;;;;30.63;21.70;;;16.90;77.50;;;;;;5096805;28;20122;-37
2021/06/25 01:33:02;;;;;;;28.88;22.25;;;17.00;76.90;;;;;;5078159;28;20089;-35
2021/06/25 01:35:27;;;;;;;26.77;19.60;;;17.00;76.90;;;;;;5078253;28;20028;-36
2021/06/25 01:37:53;;;;;;;26.75;20.70;;;16.90;77.00;;;;;;5096313;28;20031;-38
2021/06/25 01:40:22;;;;;;;36.15;21.55;;;16.80;77.50;;;;;;5096612;28;20392;-35
2021/06/25 01:42:47;;;;;;;25.30;20.33;;;16.80;77.60;;;;;;5096236;28;20043;-36
2021/06/25 01:45:24;;;;;;;28.02;22.38;;;16.80;77.70;;;;;;5096435;28;20020;-36
2021/06/25 01:47:51;;;;;;;31.17;22.15;;;16.80;77.20;;;;;;5096495;28;20020;-36
2021/06/25 01:50:20;;;;;;;27.55;21.08;;;16.60;77.70;;;;;;5096098;28;20096;-42
2021/06/25 01:52:47;;;;;;;31.45;23.05;;;16.40;78.60;;;;;;5061621;28;20028;-35
2021/06/25 01:55:13;;;;;;;30.15;23.05;;;16.40;78.40;;;;;;5095968;28;20035;-38
2021/06/25 01:57:40;;;;;;;30.70;20.35;;;16.40;78.80;;;;;;5096033;28;20024;-37
2021/06/25 02:00:06;;;;;;;31.05;20.90;;;16.20;79.90;;;;;;5096543;28;20098;-37
2021/06/25 02:02:33;;;;;;;32.95;21.88;;;16.10;81.20;;;;;;5078549;28;20455;-36
2021/06/25 02:04:59;;;;;;;28.23;21.35;;;15.90;81.60;;;;;;5096065;28;20098;-36
2021/06/25 02:07:24;;;;;;;25.65;20.60;;;15.80;81.60;;;;;;5096259;28;20112;-36
2021/06/25 02:09:50;;;;;;;32.63;21.70;;;15.90;81.00;;;;;;5095813;28;20059;-36
2021/06/25 02:12:16;;;;;;;28.55;21.05;;;16.10;80.20;;;;;;5095676;28;20032;-36
2021/06/25 02:14:42;;;;;;;27.55;19.10;;;15.90;79.40;;;;;;5077407;28;20428;-36
2021/06/25 02:17:08;;;;;;;24.83;20.10;;;15.90;78.50;;;;;;5095655;28;20161;-36
2021/06/25 02:19:34;;;;;;;27.23;19.10;;;15.90;77.40;;;;;;5095395;28;20095;-36
2021/06/25 02:21:59;;;;;;;24.50;19.05;;;15.90;77.10;;;;;;5095480;28;20036;-36
2021/06/25 02:24:25;;;;;;;23.42;17.35;;;15.90;76.20;;;;;;5095681;28;20021;-36
2021/06/25 02:26:51;;;;;;;25.13;17.15;;;15.80;76.20;;;;;;5095438;28;20146;-36
2021/06/25 02:29:16;;;;;;;22.17;16.42;;;16.00;75.00;;;;;;5095647;28;20031;-35
2021/06/25 02:31:42;;;;;;;24.35;18.33;;;15.80;75.60;;;;;;5095147;28;20024;-36
2021/06/25 02:34:08;;;;;;;22.55;16.83;;;15.80;75.70;;;;;;5077145;28;20032;-40
2021/06/25 02:36:34;;;;;;;26.33;16.73;;;15.80;75.70;;;;;;5095089;28;20028;-35
2021/06/25 02:38:59;;;;;;;24.10;16.67;;;15.80;76.50;;;;;;5095226;28;20020;-36
2021/06/25 02:41:25;;;;;;;22.65;16.70;;;15.50;78.60;;;;;;5077074;28;20103;-36
2021/06/25 02:43:51;;;;;;;28.70;19.20;;;15.30;78.90;;;;;;5095165;28;20016;-35
2021/06/25 02:46:17;;;;;;;26.38;19.40;;;15.40;78.80;;;;;;5095001;28;20027;-36
2021/06/25 02:48:42;;;;;;;24.88;17.70;;;15.30;78.50;;;;;;5095098;28;20487;-36
2021/06/25 02:51:08;;;;;;;25.40;18.33;;;15.30;78.10;;;;;;5076757;28;20024;-36
2021/06/25 02:53:34;;;;;;;28.42;18.70;;;15.30;78.00;;;;;;5095167;28;20035;-36
2021/06/25 02:56:00;;;;;;;32.05;19.00;;;15.40;77.30;;;;;;5095131;28;20020;-35
2021/06/25 02:58:26;;;;;;;27.90;20.60;;;15.30;77.40;;;;;;5094814;28;20020;-35
2021/06/25 03:00:56;;;;;;;26.25;18.15;;;15.40;77.50;;;;;;5076615;28;20468;-36
2021/06/25 03:03:22;;;;;;;29.77;19.98;;;15.30;77.50;;;;;;5094726;28;20020;-35
2021/06/25 03:05:52;;;;;;;26.60;18.88;;;15.40;76.70;;;;;;5094738;28;20421;-36
2021/06/25 03:08:18;;;;;;;25.52;18.75;;;15.40;76.60;;;;;;5077325;28;20024;-36
2021/06/25 03:10:46;;;;;;;26.02;18.65;;;15.30;77.10;;;;;;5094804;28;20535;-35
2021/06/25 03:13:12;;;;;;;28.55;19.33;;;15.20;77.30;;;;;;5094572;28;20031;-35
2021/06/25 03:15:38;;;;;;;24.08;17.98;;;15.20;77.50;;;;;;5094724;28;20032;-35
2021/06/25 03:18:04;;;;;;;25.55;18.88;;;15.10;77.60;;;;;;5094732;28;20104;-36
2021/06/25 03:20:30;;;;;;;26.20;17.80;;;15.00;78.10;;;;;;5094314;28;20054;-35
2021/06/25 03:22:55;;;;;;;27.27;17.40;;;15.00;78.10;;;;;;5094431;28;20395;-36
2021/06/25 03:25:21;;;;;;;25.95;18.98;;;15.20;77.50;;;;;;5094315;28;20024;-36
2021/06/25 03:27:47;;;;;;;24.50;17.40;;;14.90;78.00;;;;;;5076060;28;20111;-36
2021/06/25 03:30:14;;;;;;;27.25;18.13;;;14.80;77.60;;;;;;5093689;28;20455;-36
2021/06/25 03:32:40;;;;;;;26.35;18.63;;;14.80;78.20;;;;;;5094067;28;20127;-36
2021/06/25 03:35:07;;;;;;;30.20;19.23;;;14.80;78.60;;;;;;5094034;28;20032;-36
2021/06/25 03:37:34;;;;;;;25.58;18.17;;;14.80;78.40;;;;;;5075868;28;20111;-36
2021/06/25 03:39:59;;;;;;;26.88;18.92;;;14.80;78.00;;;;;;5094081;28;20035;-35
2021/06/25 03:42:25;;;;;;;30.10;18.63;;;14.80;78.50;;;;;;5093956;28;20024;-36
2021/06/25 03:44:51;;;;;;;24.52;16.25;;;14.90;78.50;;;;;;5094170;28;20498;-36
2021/06/25 03:47:16;;;;;;;28.45;18.23;;;14.80;78.50;;;;;;5093836;28;20023;-36
2021/06/25 03:49:42;;;;;;;27.05;17.40;;;14.50;80.00;;;;;;5094233;28;20032;-36
2021/06/25 03:52:07;;;;;;;22.83;17.40;;;14.50;79.90;;;;;;5075801;28;20376;-36
2021/06/25 03:54:34;;;;;;;23.92;17.95;;;14.50;80.10;;;;;;5093994;28;20074;-35
2021/06/25 03:57:00;;;;;;;27.63;18.65;;;14.60;79.90;;;;;;5093980;28;20420;-35
2021/06/25 03:59:26;;;;;;;25.90;18.40;;;14.50;79.80;;;;;;5093864;28;20085;-36
2021/06/25 04:01:52;;;;;;;24.77;19.38;;;14.60;79.30;;;;;;5075735;28;20028;-36
2021/06/25 04:04:19;;;;;;;33.00;18.83;;;14.70;79.20;;;;;;5075626;28;20507;-36
2021/06/25 04:06:44;;;;;;;27.75;18.42;;;14.80;78.60;;;;;;5075593;28;20028;-36
2021/06/25 04:09:11;;;;;;;31.65;20.13;;;14.80;78.50;;;;;;5093804;28;20043;-35
2021/06/25 04:11:37;;;;;;;23.20;18.25;;;14.80;77.70;;;;;;5075947;28;20035;-35
2021/06/25 04:14:03;;;;;;;26.25;18.00;;;14.80;77.70;;;;;;5093890;28;20425;-36
2021/06/25 04:16:29;;;;;;;29.08;19.30;;;14.80;77.30;;;;;;5093273;28;20051;-36
2021/06/25 04:18:55;;;;;;;28.05;18.60;;;14.90;77.00;;;;;;5092210;28;20016;-36
2021/06/25 04:21:21;;;;;;;27.50;17.58;;;14.90;76.70;;;;;;5093241;28;20023;-36
2021/06/25 04:23:47;;;;;;;25.70;17.80;;;14.90;76.40;;;;;;5093586;28;20043;-36
2021/06/25 04:26:13;;;;;;;24.63;17.17;;;14.90;76.10;;;;;;5094516;28;20055;-36
2021/06/25 04:28:39;;;;;;;21.85;17.40;;;15.00;75.40;;;;;;5076614;28;20035;-36
2021/06/25 04:31:05;;;;;;;25.10;17.80;;;14.80;76.20;;;;;;5093434;28;20032;-36
2021/06/25 04:33:31;;;;;;;27.88;18.02;;;14.80;76.00;;;;;;5093160;28;20122;-37
2021/06/25 04:35:57;;;;;;;21.58;16.15;;;14.80;75.70;;;;;;5093222;28;20039;-37
2021/06/25 04:38:22;;;;;;;19.73;15.10;;;14.60;75.90;;;;;;5093157;28;20491;-37
2021/06/25 04:40:49;;;;;;;24.50;17.33;;;14.70;75.90;;;;;;5093539;28;20463;-37
2021/06/25 04:43:15;;;;;;;25.30;17.05;;;14.70;75.50;;;;;;5094873;28;20027;-37
2021/06/25 04:45:42;;;;;;;26.40;16.08;;;14.70;75.40;;;;;;5079121;28;20111;-45
2021/06/25 04:48:13;;;;;;;25.23;15.90;;;14.80;75.40;;;;;;5078983;28;20032;-37
2021/06/25 04:50:39;;;;;;;;;;;14.90;74.60;;;;;;5097935;28;20016;-36
2021/06/25 04:53:05;;;;;;;25.65;17.73;;;14.90;74.70;;;;;;5097163;28;19911;-36
2021/06/25 04:55:31;;;;;;;25.88;16.70;;;14.70;75.40;;;;;;5097061;28;20028;-36
2021/06/25 04:58:06;;;;;;;31.27;19.25;;;14.70;75.80;;;;;;5079096;28;20089;-37
2021/06/25 05:00:31;;;;;;;22.63;16.67;;;14.60;76.00;;;;;;5096976;28;20024;-37
2021/06/25 05:02:57;;;;;;;27.38;17.10;;;14.60;75.50;;;;;;5097008;28;20027;-37
2021/06/25 05:05:23;;;;;;;20.50;16.88;;;14.60;75.80;;;;;;5096872;28;20024;-37
2021/06/25 05:07:48;;;;;;;25.23;18.15;;;14.70;76.00;;;;;;5097059;28;20386;-37
2021/06/25 05:10:14;;;;;;;23.92;17.42;;;14.70;76.30;;;;;;5096952;28;20028;-37
2021/06/25 05:12:40;;;;;;;29.58;19.10;;;14.70;76.20;;;;;;5096860;28;20036;-37
2021/06/25 05:15:07;;;;;;;20.92;16.23;;;14.80;76.10;;;;;;5096634;28;20460;-36
2021/06/25 05:17:33;;;;;;;30.10;16.52;;;14.80;75.80;;;;;;5096967;28;20021;-36
2021/06/25 05:19:58;;;;;;;29.80;18.70;;;14.80;76.10;;;;;;5096894;28;20352;-36
2021/06/25 05:22:24;;;;;;;32.35;20.20;;;14.90;75.80;;;;;;5096430;28;20107;-36
2021/06/25 05:24:50;;;;;;;30.08;19.25;;;14.80;75.70;;;;;;5078258;28;20454;-41
2021/06/25 05:27:16;;;;;;;26.30;19.85;;;14.90;75.80;;;;;;5096647;28;20210;-37
2021/06/25 05:29:41;;;;;;;29.05;21.25;;;14.80;75.80;;;;;;5096750;28;20460;-36
2021/06/25 05:32:07;;;;;;;30.42;19.65;;;15.00;75.30;;;;;;5077966;28;20044;-36
2021/06/25 05:34:33;;;;;;;26.92;18.80;;;15.10;75.30;;;;;;5096271;28;20020;-36
2021/06/25 05:36:59;;;;;;;28.40;18.63;;;15.20;74.60;;;;;;5096292;28;20028;-36
2021/06/25 05:39:24;;;;;;;24.88;18.58;;;15.20;74.40;;;;;;5096242;28;20112;-36
2021/06/25 05:42:05;;;;;;;33.53;18.77;;;15.20;74.50;;;;;;5098141;28;20021;-38
2021/06/25 05:44:30;;;;;;;26.73;19.67;;;15.30;74.10;;;;;;5094184;28;20028;-36
2021/06/25 05:46:56;;;;;;;26.52;18.67;;;15.30;74.30;;;;;;5096346;28;20084;-36
2021/06/25 05:49:21;;;;;;;30.10;19.77;;;15.40;73.50;;;;;;5095955;28;20031;-36
2021/06/25 05:51:49;;;;;;;26.60;17.95;;;15.40;73.20;;;;;;5095992;28;20459;-37
2021/06/25 05:54:15;;;;;;;30.58;19.67;;;15.50;72.80;;;;;;5095298;28;20103;-37
2021/06/25 05:56:40;;;;;;;27.83;19.38;;;15.70;72.10;;;;;;5096016;28;20174;-36
2021/06/25 05:59:06;;;;;;;29.67;18.83;;;15.70;72.00;;;;;;5095887;28;20016;-36
2021/06/25 06:01:32;;;;;;;21.58;16.48;;;15.90;68.80;;;;;;5096154;28;20413;-36
2021/06/25 06:03:57;;;;;;;23.05;15.65;;;15.90;68.40;;;;;;5077429;28;20024;-36
2021/06/25 06:06:23;;;;;;;30.45;19.23;;;16.10;66.50;;;;;;5096079;28;20112;-36
2021/06/25 06:08:49;;;;;;;34.85;17.48;;;16.00;66.90;;;;;;5095893;28;20028;-36
2021/06/25 06:11:14;;;;;;;22.95;15.93;;;16.00;64.80;;;;;;5095623;28;20483;-37
2021/06/25 06:13:40;;;;;;;21.30;14.13;;;16.10;63.70;;;;;;5095570;28;20031;-37
2021/06/25 06:16:06;;;;;;;24.85;15.77;;;16.30;62.60;;;;;;5096359;28;20028;-37
2021/06/25 06:18:43;;;;;;;19.75;12.95;;;16.30;60.70;;;;;;5077389;28;20028;-45
2021/06/25 06:21:09;;;;;;;22.25;12.98;;;16.50;59.90;;;;;;5095650;28;20467;-37
2021/06/25 06:32:01;;;;;;;20.38;12.80;;;17.10;54.70;;;;;;5095149;28;20039;-38
2021/06/25 06:34:32;;;;;;;14.00;11.03;;;17.30;55.40;;;;;;5095259;28;20043;-39
2021/06/25 06:36:58;;;;;;;18.23;10.50;;;16.80;52.80;;;;;;5095469;28;20039;-38
2021/06/25 06:39:24;;;;;;;12.85;9.57;;;16.80;54.60;;;;;;5077758;28;20024;-37
2021/06/25 06:41:50;;;;;;;11.63;9.05;;;16.80;54.90;;;;;;5095629;28;20074;-38
2021/06/25 06:44:16;;;;;;;17.48;9.95;;;16.80;52.70;;;;;;5077352;28;20024;-37
2021/06/25 06:46:42;;;;;;;15.18;8.82;;;17.00;53.40;;;;;;5094408;28;20034;-37
2021/06/25 06:49:07;;;;;;;11.27;7.50;;;16.90;53.70;;;;;;5095464;28;20351;-37
2021/06/25 06:51:34;;;;;;;13.80;8.23;;;16.90;51.30;;;;;;5095309;28;20484;-37
2021/06/25 06:54:02;;;;;;;15.35;8.15;;;17.10;51.90;;;;;;5095202;28;20036;-37
2021/06/25 06:56:28;;;;;;;8.90;7.30;;;17.30;50.60;;;;;;5094388;28;20030;-37
2021/06/25 06:58:55;;;;;;;11.13;7.90;;;17.10;50.30;;;;;;5094233;28;20095;-37
2021/06/25 07:01:24;;;;;;;13.48;8.40;;;16.90;51.20;;;;;;5075537;28;20076;-37
2021/06/25 07:03:50;;;;;;;14.35;8.88;;;17.30;50.20;;;;;;5094579;28;20412;-37
2021/06/25 07:06:16;;;;;;;13.88;8.95;;;17.30;50.80;;;;;;5093662;28;20027;-38
2021/06/25 07:08:41;;;;;;;15.15;9.00;;;17.20;50.60;;;;;;5076385;28;20028;-37
2021/06/25 07:11:08;;;;;;;13.63;8.30;;;17.10;50.60;;;;;;5093990;28;20020;-38
2021/06/25 07:13:34;;;;;;;12.55;8.43;;;17.20;50.10;;;;;;5075992;28;20024;-37
2021/06/25 07:15:59;;;;;;;14.10;8.63;;;17.50;50.60;;;;;;5094492;28;20107;-37
2021/06/25 07:18:26;;;;;;;15.05;8.48;;;17.90;48.70;;;;;;5094164;28;20027;-37
2021/06/25 07:20:52;;;;;;;14.93;7.55;;;18.00;48.50;;;;;;5076287;28;20024;-36
2021/06/25 07:23:19;;;;;;;11.15;7.47;;;17.90;48.80;;;;;;5042923;28;20480;-38
2021/06/25 07:25:44;;;;;;;13.45;8.43;;;18.30;47.90;;;;;;5094227;28;20050;-38
2021/06/25 07:28:10;;;;;;;11.77;7.47;;;19.10;45.60;;;;;;5076034;28;20106;-37
2021/06/25 07:30:36;;;;;;;13.98;8.25;;;19.00;44.80;;;;;;5075983;28;20059;-37
2021/06/25 07:33:03;;;;;;;12.35;7.88;;;19.70;42.50;;;;;;5093866;28;20119;-37
2021/06/25 07:35:29;;;;;;;14.80;7.60;;;19.60;43.30;;;;;;5093863;28;20380;-37
2021/06/25 07:37:54;;;;;;;11.27;7.30;;;19.70;42.30;;;;;;5093600;28;20020;-36
2021/06/25 07:40:21;;;;;;;12.85;6.40;;;19.80;43.10;;;;;;5075842;28;20494;-37
2021/06/25 07:42:47;;;;;;;8.32;6.47;;;19.80;41.60;;;;;;5094020;28;20028;-37
2021/06/25 07:45:15;;;;;;;11.38;6.30;;;19.90;42.30;;;;;;5093850;28;20105;-37
2021/06/25 07:47:43;;;;;;;10.65;7.18;;;19.30;43.70;;;;;;5059986;28;20031;-38
2021/06/25 07:50:14;;;;;;;10.95;7.13;;;19.60;42.40;;;;;;5075558;28;20028;-37
2021/06/25 07:52:40;;;;;;;11.82;7.78;;;19.80;43.00;;;;;;5093729;28;20134;-36
2021/06/25 07:55:07;;;;;;;14.43;8.50;;;19.90;43.40;;;;;;5093663;28;20510;-37
2021/06/25 07:57:33;;;;;;;13.05;9.45;;;20.30;42.80;;;;;;5093845;28;20020;-37
2021/06/25 08:00:13;;;;;;;12.73;8.88;;;20.30;43.70;;;;;;5093597;28;20517;-37
2021/06/25 08:02:40;;;;;;;;;;;19.80;45.70;;;;;;5075349;28;20082;-37
2021/06/25 08:05:06;;;;;;;13.80;8.57;;;20.30;45.20;;;;;;5093616;28;20332;-37
2021/06/25 08:07:32;;;;;;;16.00;9.85;;;20.80;44.50;;;;;;5093617;28;20436;-37
2021/06/25 08:09:57;;;;;;;12.70;9.80;;;21.20;43.90;;;;;;5075536;28;20081;-37
2021/06/25 08:12:23;;;;;;;17.30;9.75;;;20.20;46.40;;;;;;5093622;28;20040;-37
2021/06/25 08:14:49;;;;;;;20.60;11.73;;;20.20;46.90;;;;;;5074693;28;20356;-36
2021/06/25 08:17:15;;;;;;;14.73;10.57;;;20.30;45.90;;;;;;5092856;28;20425;-36
2021/06/25 08:19:41;;;;;;;20.40;11.60;;;20.50;46.20;;;;;;5093320;28;20035;-37
2021/06/25 08:22:07;;;;;;;17.08;11.38;;;20.90;46.10;;;;;;5092451;28;20024;-37
2021/06/25 08:24:34;;;;;;;18.40;12.65;;;20.70;46.40;;;;;;5093451;28;20066;-39
2021/06/25 08:27:01;;;;;;;18.67;12.32;;;21.10;46.40;;;;;;5093670;28;20024;-37
2021/06/25 08:29:26;;;;;;;19.33;12.57;;;21.30;46.40;;;;;;5093398;28;20024;-37
2021/06/25 08:31:52;;;;;;;22.33;13.80;;;21.00;47.30;;;;;;5092941;28;20046;-38
2021/06/25 08:34:18;;;;;;;27.55;16.02;;;20.70;49.90;;;;;;5093377;28;20024;-37
2021/06/25 08:36:44;;;;;;;22.40;15.10;;;21.10;49.10;;;;;;5096511;28;20087;-37
2021/06/25 08:39:09;;;;;;;24.20;13.23;;;22.10;46.20;;;;;;5093179;28;20028;-37
2021/06/25 08:41:37;;;;;;;20.35;15.35;;;21.70;47.30;;;;;;5074956;28;20016;-38
2021/06/25 08:44:04;;;;;;;28.02;14.45;;;21.50;48.40;;;;;;5093126;28;20543;-37
2021/06/25 08:46:33;;;;;;;22.73;14.38;;;21.00;49.60;;;;;;5074745;28;20036;-37
2021/06/25 08:49:03;;;;;;;25.60;15.30;;;20.70;50.20;;;;;;5094253;28;20127;-37
2021/06/25 08:51:29;;;;;;;25.98;15.75;;;21.00;50.30;;;;;;5075250;28;20131;-36
2021/06/25 08:53:54;;;;;;;23.73;14.73;;;21.00;50.10;;;;;;5074829;28;20031;-36
2021/06/25 08:56:20;;;;;;;19.73;14.70;;;21.40;49.40;;;;;;5092564;28;20027;-36
2021/06/25 08:58:46;;;;;;;16.60;13.30;;;21.30;48.90;;;;;;5091962;28;20472;-36
2021/06/25 09:01:13;;;;;;;18.42;12.55;;;21.90;47.80;;;;;;5092960;28;20052;-39
2021/06/25 09:03:49;;;;;;;18.92;12.63;;;21.30;49.10;;;;;;5092951;28;20073;-36
2021/06/25 09:06:15;;;;;;;17.73;12.23;;;21.60;47.70;;;;;;5075814;28;20032;-37
2021/06/25 09:08:42;;;;;;;23.45;14.05;;;22.20;46.90;;;;;;5095608;28;20031;-39
2021/06/25 09:11:25;;;;;;;20.40;12.38;;;22.20;46.90;;;;;;5093068;28;20039;-38
2021/06/25 09:14:01;;;;;;;22.00;14.68;;;21.50;49.10;;;;;;5092919;28;20073;-37
2021/06/25 09:16:33;;;;;;;25.02;13.13;;;21.30;50.20;;;;;;5093812;28;20032;-36
2021/06/25 09:19:05;;;;;;;22.38;14.98;;;21.30;50.00;;;;;;5094304;28;20077;-37
2021/06/25 09:21:38;;;;;;;21.55;15.98;;;21.00;50.70;;;;;;5092141;28;20020;-38
2021/06/25 09:24:25;;;;;;;18.80;12.73;;;22.20;48.40;;;;;;5092156;28;20065;-38
2021/06/25 09:26:56;;;;;;;24.25;16.60;;;22.30;47.90;;;;;;5092149;28;20036;-36
2021/06/25 09:29:24;;;;;;;27.48;15.60;;;21.40;50.30;;;;;;5093837;28;20402;-36
2021/06/25 09:32:09;;;;;;;21.63;15.30;;;21.80;49.90;;;;;;5095815;28;20149;-36
2021/06/25 09:34:38;;;;;;;23.98;16.80;;;22.00;49.50;;;;;;5096134;28;20032;-37
2021/06/25 09:37:04;;;;;;;27.02;16.90;;;22.50;47.70;;;;;;5096562;28;20051;-37
2021/06/25 09:39:31;;;;;;;22.83;15.82;;;22.40;48.30;;;;;;5096277;28;20455;-36
2021/06/25 09:41:57;;;;;;;23.42;16.60;;;21.80;49.80;;;;;;5095202;28;20551;-37
2021/06/25 09:44:24;;;;;;;26.20;16.80;;;20.90;51.40;;;;;;5096181;28;20101;-37
2021/06/25 09:46:55;;;;;;;22.45;15.48;;;20.90;51.70;;;;;;5095698;28;20028;-37
2021/06/25 09:49:29;;;;;;;25.35;16.88;;;21.30;51.10;;;;;;5095849;28;20533;-37
2021/06/25 09:52:00;;;;;;;26.60;17.05;;;21.50;50.60;;;;;;5077516;28;20032;-37
2021/06/25 09:54:27;;;;;;;22.70;15.32;;;21.30;51.40;;;;;;5096043;28;20078;-37
2021/06/25 09:57:07;;;;;;;23.38;16.20;;;21.40;50.90;;;;;;5095468;28;20020;-37
2021/06/25 09:59:59;;;;;;;25.40;15.82;;;21.70;50.40;;;;;;5077328;28;20024;-41
2021/06/25 10:02:29;;;;;;;21.77;15.57;;;22.30;49.30;;;;;;5095839;28;20111;-36
2021/06/25 10:04:58;;;;;;;18.83;14.68;;;22.80;47.80;;;;;;5096155;28;20447;-36
2021/06/25 10:07:29;;;;;;;24.85;17.10;;;22.10;49.50;;;;;;5095179;28;20031;-36
2021/06/25 10:09:58;;;;;;;29.70;17.42;;;22.10;49.00;;;;;;5095136;28;20016;-36
2021/06/25 10:12:24;;;;;;;24.83;14.27;;;21.40;50.60;;;;;;5095189;28;20110;-37
2021/06/25 10:14:52;;;;;;;26.95;15.52;;;21.00;52.00;;;;;;5095297;28;20022;-37
2021/06/25 10:17:18;;;;;;;23.52;14.73;;;20.80;52.80;;;;;;5095244;28;20046;-37
2021/06/25 10:19:50;;;;;;;20.50;14.52;;;20.50;53.50;;;;;;5076675;28;20028;-38
2021/06/25 10:22:19;;;;;;;23.33;14.98;;;20.90;52.60;;;;;;5076392;28;20050;-38
2021/06/25 10:24:50;;;;;;;22.53;15.63;;;20.90;52.40;;;;;;5095141;28;20035;-36
2021/06/25 10:27:19;;;;;;;17.85;14.02;;;20.80;53.20;;;;;;5094797;28;20181;-37
2021/06/25 10:29:45;;;;;;;23.73;15.55;;;21.00;52.60;;;;;;5095037;28;20203;-37
2021/06/25 10:32:11;;;;;;;25.95;17.17;;;21.30;50.80;;;;;;5094635;28;20071;-37
2021/06/25 10:34:39;;;;;;;21.25;14.77;;;21.60;50.10;;;;;;5095165;28;20057;-37
2021/06/25 10:37:08;;;;;;;21.48;14.63;;;22.50;48.00;;;;;;5094801;28;20051;-37
2021/06/25 10:39:35;;;;;;;23.27;15.10;;;22.40;47.40;;;;;;5094790;28;20043;-37
2021/06/25 10:42:10;;;;;;;21.05;13.68;;;23.70;45.00;;;;;;5095203;28;20400;-37
2021/06/25 10:44:56;;;;;;;22.08;15.30;;;23.30;45.10;;;;;;5094575;28;20030;-37
2021/06/25 10:47:32;;;;;;;18.83;14.32;;;22.90;46.10;;;;;;5093840;28;20028;-37
2021/06/25 10:50:01;;;;;;;21.98;13.52;;;22.80;46.60;;;;;;5095569;28;20012;-36
2021/06/25 10:52:41;;;;;;;19.08;13.65;;;22.70;47.50;;;;;;5094883;28;20020;-36
2021/06/25 10:55:17;;;;;;;21.83;14.02;;;21.90;48.70;;;;;;5095493;28;20103;-37
2021/06/25 10:58:03;;;;;;;19.45;14.73;;;21.50;51.20;;;;;;5060734;28;20031;-49
2021/06/25 11:00:53;;;;;;;18.58;13.98;;;21.70;49.40;;;;;;5087167;28;20121;-51
2021/06/25 11:03:29;;;;;;;;;;;21.90;48.90;;;;;;5077908;28;20047;-50
2021/06/25 11:05:54;;;;;;;18.27;14.52;;;22.40;47.60;;;;;;5094125;28;19911;-52
2021/06/25 11:08:21;;;;;;;22.20;14.07;;;22.70;46.30;;;;;;5075893;28;20024;-52
2021/06/25 11:10:54;;;;;;;17.23;13.05;;;22.30;47.70;;;;;;5094844;28;20028;-47
2021/06/25 11:13:22;;;;;;;22.58;13.32;;;22.00;48.30;;;;;;5094402;28;20148;-47
2021/06/25 11:15:50;;;;;;;16.63;11.82;;;21.80;48.70;;;;;;5094243;28;20027;-49
2021/06/25 11:18:30;;;;;;;13.95;11.57;;;21.70;49.70;;;;;;5094465;28;20024;-54
2021/06/25 11:21:05;;;;;;;15.30;11.70;;;22.30;48.50;;;;;;5094250;28;20052;-49
2021/06/25 11:23:40;;;;;;;16.42;11.93;;;23.10;45.90;;;;;;5092553;28;20267;-49
2021/06/25 11:26:24;;;;;;;15.15;11.80;;;23.30;44.50;;;;;;5094261;28;20066;-49
2021/06/25 11:28:51;;;;;;;14.15;11.68;;;24.20;42.30;;;;;;5094181;28;20028;-49
2021/06/25 11:31:20;;;;;;;17.00;11.32;;;23.90;43.20;;;;;;5093811;28;20384;-49
2021/06/25 11:33:49;;;;;;;20.98;13.02;;;24.10;42.90;;;;;;5094092;28;20126;-48
2021/06/25 11:36:33;;;;;;;17.42;13.27;;;24.60;42.90;;;;;;5092589;28;20032;-51
2021/06/25 11:39:17;;;;;;;18.63;12.63;;;24.50;42.80;;;;;;5094038;28;20026;-51
2021/06/25 11:41:53;;;;;;;23.15;12.25;;;24.60;42.90;;;;;;5094004;28;20043;-48
2021/06/25 11:44:40;;;;;;;16.63;12.40;;;24.40;42.30;;;;;;5094045;28;20467;-51
2021/06/25 11:47:11;;;;;;;17.05;12.00;;;23.80;43.90;;;;;;5093639;28;20050;-50
2021/06/25 11:52:27;;;;;;;18.10;14.20;;;23.10;43.70;;;;;;5093377;28;20540;-53
2021/06/25 11:54:56;;;;;;;18.42;12.18;;;23.20;44.30;;;;;;5093687;28;20016;-47
2021/06/25 11:57:26;;;;;;;15.48;13.73;;;23.60;42.40;;;;;;5075849;28;20048;-48
2021/06/25 12:00:01;;;;;;;17.27;13.32;;;23.50;42.40;;;;;;5075535;28;20562;-50
2021/06/25 12:02:48;;;;;;;22.90;13.55;;;24.00;41.10;;;;;;5092385;28;20024;-49
2021/06/25 12:05:19;;;;;;;15.38;12.20;;;24.20;40.90;;;;;;5093711;28;20494;-48
2021/06/25 12:07:46;;;;;;;14.57;10.75;;;24.30;40.70;;;;;;5093119;28;20412;-50
2021/06/25 12:10:18;;;;;;;16.75;12.88;;;23.80;42.00;;;;;;5093151;28;20357;-48
2021/06/25 12:12:44;;;;;;;15.32;12.43;;;23.20;43.00;;;;;;5093989;28;20028;-52
2021/06/25 12:15:12;;;;;;;17.38;12.30;;;23.30;42.90;;;;;;5093946;28;20047;-48
2021/06/25 12:17:48;;;;;;;15.13;12.73;;;23.70;41.90;;;;;;5075408;28;20016;-49
2021/06/25 12:20:17;;;;;;;17.98;11.65;;;23.00;44.20;;;;;;5093664;28;20103;-53
2021/06/25 12:23:04;;;;;;;17.65;12.63;;;23.30;43.50;;;;;;5093989;28;20020;-48
2021/06/25 12:25:42;;;;;;;18.00;12.48;;;23.30;43.30;;;;;;5093556;28;20028;-50
2021/06/25 12:28:18;;;;;;;17.73;13.23;;;22.70;44.30;;;;;;5093404;28;20028;-53
2021/06/25 12:30:49;;;;;;;16.45;12.27;;;22.90;44.10;;;;;;5093271;28;20030;-53
2021/06/25 12:33:17;;;;;;;15.07;12.05;;;22.80;44.40;;;;;;5092949;28;20052;-50
2021/06/25 12:35:48;;;;;;;15.10;11.25;;;22.70;44.60;;;;;;5093439;28;20031;-52
2021/06/25 12:38:22;;;;;;;19.98;13.25;;;22.30;45.70;;;;;;5093047;28;20028;-49
2021/06/25 12:40:55;;;;;;;17.92;12.40;;;22.40;44.40;;;;;;5093525;28;20020;-51
2021/06/25 12:43:54;;;;;;;19.67;14.05;;;22.20;45.20;;;;;;5093557;28;20024;-48